FALA

Lanseria Airport

Johannesburg, South Africa
METAR FALA 160900Z 35006KT 280V040 CAVOK 30/08 Q1024 NOSIG
Observed Flight Rules
Nov-16 @ 09:00 UTC (45 minutes ago) Visual Flight Rules
Wind Visibility Clouds
350° at 6 knots 10,000+ meters
  • Clear skies
Temperatures Readings
Current 30°C / 86°F
Dewpoint 8°C / 46°F
Humidity 25%
Altimeter 30.24" Hg
Pressure 1024 hPa
Elevation 1377
METAR FALA 160900Z 35006KT 280V040 CAVOK 30/08 Q1024 NOSIG
Observed Flight Rules
Nov-16 @ 09:00 UTC
(45 minutes ago)
VFR
Wind Visibility
350° at 6 knots 10,000+ meters
Clouds
  • Clear skies
Temperature Dewpoint
30°C / 86°F 8°C / 46°F
Humidity Altimeter Pressure
25% 30.24" Hg 1024 hPa